createdAt,value
2022-09-23T00:01:15.925Z,19.11
2022-09-23T00:06:59.920Z,19.09
2022-09-23T00:12:43.591Z,19.02
2022-09-23T00:18:27.067Z,18.98
2022-09-23T00:24:10.218Z,18.93
2022-09-23T00:29:53.495Z,18.87
2022-09-23T00:35:36.713Z,18.83
2022-09-23T00:41:20.035Z,18.83
2022-09-23T00:47:04.416Z,18.79
2022-09-23T00:52:48.723Z,18.76
2022-09-23T00:58:33.783Z,18.74
2022-09-23T01:04:17.059Z,18.71
2022-09-23T01:10:00.608Z,18.72
2022-09-23T01:15:47.093Z,18.69
2022-09-23T01:21:37.375Z,18.68
2022-09-23T01:27:27.371Z,18.65
2022-09-23T01:33:14.332Z,18.64
2022-09-23T01:39:00.609Z,18.61
2022-09-23T01:44:46.189Z,18.57
2022-09-23T01:50:31.865Z,18.5
2022-09-23T01:56:17.598Z,18.46
2022-09-23T02:02:03.589Z,18.43
2022-09-23T02:07:50.623Z,18.43
2022-09-23T02:13:37.210Z,18.37
2022-09-23T02:19:25.430Z,18.34
2022-09-23T02:25:09.739Z,18.33
2022-09-23T02:30:58.271Z,18.27
2022-09-23T02:36:45.666Z,18.27
2022-09-23T02:42:32.645Z,18.25
2022-09-23T02:48:20.759Z,18.22
2022-09-23T02:54:05.027Z,18.2
2022-09-23T02:59:48.442Z,18.15
2022-09-23T03:05:35.251Z,18.13
2022-09-23T03:11:18.713Z,18.12
2022-09-23T03:17:04.048Z,18.09
2022-09-23T03:22:49.650Z,18.05
2022-09-23T03:28:35.460Z,18
2022-09-23T03:34:22.477Z,17.95
2022-09-23T03:40:08.840Z,17.93
2022-09-23T03:45:52.999Z,17.9
2022-09-23T03:51:36.526Z,17.87
2022-09-23T03:57:26.108Z,17.85
2022-09-23T04:03:11.685Z,17.82
2022-09-23T04:08:56.199Z,17.8
2022-09-23T04:14:39.355Z,17.81
2022-09-23T04:20:22.623Z,17.84
2022-09-23T04:26:06.215Z,17.83
2022-09-23T04:31:49.951Z,17.81
2022-09-23T04:37:33.554Z,17.8
2022-09-23T04:43:16.997Z,17.77
2022-09-23T04:49:00.397Z,17.74
2022-09-23T04:54:44.118Z,17.79
2022-09-23T05:00:27.483Z,17.74
2022-09-23T05:06:12.833Z,17.74
2022-09-23T05:11:55.957Z,17.61
2022-09-23T05:17:39.073Z,17.59
2022-09-23T05:23:23.063Z,17.58
2022-09-23T05:29:06.319Z,17.6
2022-09-23T05:34:49.742Z,17.64
2022-09-23T05:40:33.112Z,17.64
2022-09-23T05:46:17.558Z,17.65
2022-09-23T05:52:01.880Z,17.68
2022-09-23T05:57:45.182Z,17.68
2022-09-23T06:03:28.479Z,17.68
2022-09-23T06:09:12.928Z,17.72
2022-09-23T06:14:56.162Z,17.77
2022-09-23T06:20:39.395Z,17.83
2022-09-23T06:26:22.761Z,17.89
2022-09-23T06:32:06.226Z,17.97
2022-09-23T06:37:49.867Z,18.1
2022-09-23T06:43:33.049Z,18.2
2022-09-23T06:49:16.299Z,18.29
2022-09-23T06:54:59.571Z,18.44
2022-09-23T07:00:42.714Z,18.56
2022-09-23T07:06:26.056Z,18.68
2022-09-23T07:12:09.375Z,18.79
2022-09-23T07:17:52.590Z,18.91
2022-09-23T07:23:35.756Z,19.03
2022-09-23T07:29:19.406Z,19.12
2022-09-23T07:35:02.563Z,19.26
2022-09-23T07:40:45.980Z,19.4
2022-09-23T07:46:30.783Z,19.53
2022-09-23T07:52:14.379Z,19.67
2022-09-23T07:57:57.555Z,19.82
2022-09-23T08:03:40.806Z,19.94
2022-09-23T08:09:24.659Z,20.11
2022-09-23T08:15:08.839Z,20.26
2022-09-23T08:20:52.223Z,20.36
2022-09-23T08:26:35.458Z,20.5
2022-09-23T08:32:18.997Z,20.62
2022-09-23T08:38:02.795Z,20.74
2022-09-23T08:43:49.381Z,20.87
2022-09-23T08:49:35.507Z,21.03
2022-09-23T08:55:19.127Z,21.22
2022-09-23T09:01:07.500Z,21.46
2022-09-23T09:06:55.921Z,21.7
2022-09-23T09:13:00.558Z,21.92
2022-09-23T09:18:48.726Z,22
2022-09-23T09:24:33.798Z,22.1
2022-09-23T09:30:18.373Z,22.21
2022-09-23T09:36:06.723Z,22.35
2022-09-23T09:41:51.054Z,22.48
2022-09-23T09:47:39.838Z,22.59
2022-09-23T09:53:25.328Z,22.71
2022-09-23T09:59:11.145Z,22.8
2022-09-23T10:04:59.382Z,22.88
2022-09-23T10:10:47.555Z,22.98
2022-09-23T10:16:32.014Z,23.08
2022-09-23T10:22:20.222Z,23.07
2022-09-23T10:28:08.500Z,22.99
2022-09-23T10:33:52.708Z,23.02
2022-09-23T10:39:36.031Z,23.12
2022-09-23T10:45:25.456Z,23.28
2022-09-23T10:51:13.234Z,23.47
2022-09-23T10:57:01.603Z,23.63
2022-09-23T11:02:53.035Z,23.8
2022-09-23T11:08:43.227Z,23.97
2022-09-23T11:14:32.797Z,24.08
2022-09-23T11:20:26.639Z,24.14
2022-09-23T11:26:17.170Z,24.31
2022-09-23T11:32:07.555Z,24.48
2022-09-23T11:37:55.615Z,24.6
2022-09-23T11:43:40.831Z,24.76
2022-09-23T11:49:26.358Z,25
2022-09-23T11:55:20.674Z,25.32
2022-09-23T12:01:09.242Z,25.64
2022-09-23T12:07:03.773Z,25.66
2022-09-23T12:12:51.187Z,25.77
2022-09-23T12:18:41.660Z,25.88
2022-09-23T12:24:36.048Z,25.95
2022-09-23T12:30:21.749Z,25.98
2022-09-23T12:36:08.826Z,26.04
2022-09-23T12:41:55.945Z,26.13
2022-09-23T12:47:41.734Z,26.2
2022-09-23T12:53:44.763Z,26.26
2022-09-23T12:59:29.238Z,26.32
2022-09-23T13:05:18.733Z,26.4
2022-09-23T13:11:05.615Z,26.41
2022-09-23T13:16:49.401Z,26.4
2022-09-23T13:22:50.436Z,26.36
2022-09-23T13:28:41.619Z,26.37
2022-09-23T13:34:28.663Z,26.38
2022-09-23T13:40:17.026Z,26.38
2022-09-23T13:46:02.219Z,26.37
2022-09-23T13:51:45.695Z,26.31
2022-09-23T13:57:29.847Z,26.23
2022-09-23T14:03:23.833Z,26.19
2022-09-23T14:09:07.191Z,26.16
2022-09-23T14:14:52.213Z,26.07
2022-09-23T14:20:40.321Z,25.92
2022-09-23T14:26:23.847Z,25.81
2022-09-23T14:32:11.334Z,25.71
2022-09-23T14:37:56.047Z,25.64
2022-09-23T14:43:39.434Z,25.49
2022-09-23T14:49:23.345Z,25.29
2022-09-23T14:55:15.101Z,25.15
2022-09-23T15:00:59.457Z,25.03
2022-09-23T15:06:45.472Z,24.93
2022-09-23T15:12:29.840Z,24.82
2022-09-23T15:18:16.861Z,24.71
2022-09-23T15:24:00.265Z,24.65
2022-09-23T15:29:43.910Z,24.57
2022-09-23T15:35:29.549Z,24.5
2022-09-23T15:41:13.471Z,24.4
2022-09-23T15:46:57.977Z,24.3
2022-09-23T15:52:41.794Z,24.19
2022-09-23T15:58:26.418Z,24.06
2022-09-23T16:04:10.071Z,23.96
2022-09-23T16:09:53.214Z,23.88
2022-09-23T16:15:36.898Z,23.75
2022-09-23T16:21:21.007Z,23.65
2022-09-23T16:27:06.374Z,23.57
2022-09-23T16:32:49.666Z,23.46
2022-09-23T16:38:32.849Z,23.41
2022-09-23T16:44:15.955Z,23.38
2022-09-23T16:49:59.327Z,23.27
2022-09-23T16:55:43.012Z,23.2
2022-09-23T17:01:27.263Z,23.09
2022-09-23T17:07:10.835Z,23.02
2022-09-23T17:12:54.137Z,22.92
2022-09-23T17:18:37.393Z,22.79
2022-09-23T17:24:20.735Z,22.68
2022-09-23T17:30:04.679Z,22.61
2022-09-23T17:35:47.804Z,22.51
2022-09-23T17:41:31.075Z,22.43
2022-09-23T17:47:14.223Z,22.35
2022-09-23T17:52:57.683Z,22.28
2022-09-23T17:58:40.953Z,22.19
2022-09-23T18:04:24.250Z,22.11
2022-09-23T18:10:08.268Z,22.06
2022-09-23T18:15:51.399Z,21.98
2022-09-23T18:21:35.679Z,21.93
2022-09-23T18:27:18.892Z,21.86
2022-09-23T18:33:03.096Z,21.8
2022-09-23T18:38:46.736Z,21.76
2022-09-23T18:44:29.926Z,21.69
2022-09-23T18:50:13.436Z,21.63
2022-09-23T18:55:56.894Z,21.57
2022-09-23T19:01:40.886Z,21.51
2022-09-23T19:07:24.546Z,21.48
2022-09-23T19:13:07.888Z,21.42
2022-09-23T19:18:52.324Z,21.36
2022-09-23T19:24:35.341Z,21.33
2022-09-23T19:30:19.592Z,21.28
2022-09-23T19:36:03.343Z,21.28
2022-09-23T19:41:46.956Z,21.24
2022-09-23T19:47:29.999Z,21.18
2022-09-23T19:53:13.773Z,21.14
2022-09-23T19:58:56.902Z,21.1
2022-09-23T20:04:39.818Z,21.06
2022-09-23T20:10:23.206Z,21.03
2022-09-23T20:16:06.572Z,20.99
2022-09-23T20:21:50.070Z,20.98
2022-09-23T20:27:33.451Z,20.97
2022-09-23T20:33:16.699Z,20.92
2022-09-23T20:39:00.558Z,20.92
2022-09-23T20:44:44.248Z,20.89
2022-09-23T20:50:27.660Z,20.86
2022-09-23T20:56:11.320Z,20.83
2022-09-23T21:01:54.524Z,20.81
2022-09-23T21:07:38.271Z,20.79
2022-09-23T21:13:21.707Z,20.76
2022-09-23T21:19:04.809Z,20.73
2022-09-23T21:25:26.157Z,20.71
2022-09-23T21:30:52.023Z,20.72
2022-09-23T21:36:36.755Z,20.7
2022-09-23T21:42:25.995Z,20.67
2022-09-23T21:48:09.347Z,20.62
2022-09-23T21:53:53.269Z,20.59
2022-09-23T21:59:36.549Z,20.57
2022-09-23T22:05:19.811Z,20.53
2022-09-23T22:11:03.441Z,20.53
2022-09-23T22:16:46.946Z,20.49
2022-09-23T22:22:30.271Z,20.44
2022-09-23T22:28:13.357Z,20.43
2022-09-23T22:33:56.550Z,20.39
2022-09-23T22:39:40.156Z,20.39
2022-09-23T22:45:23.519Z,20.33
2022-09-23T22:51:08.087Z,20.33
2022-09-23T22:56:51.374Z,20.28
2022-09-23T23:02:34.706Z,20.25
2022-09-23T23:08:18.187Z,20.21
2022-09-23T23:14:01.859Z,20.2
2022-09-23T23:19:45.521Z,20.16
2022-09-23T23:25:28.682Z,20.13
2022-09-23T23:31:12.793Z,20.08
2022-09-23T23:36:56.417Z,20.06
2022-09-23T23:42:39.955Z,20
2022-09-23T23:48:23.147Z,19.97
2022-09-23T23:54:06.659Z,19.96
2022-09-23T23:59:50.037Z,19.92
